Migrate, Kentucky
Current Conditions -  °F | °C
As of 12:54 AM on Monday 22 Dec 2014 (Local Time) from KLEX Reporting Station
Overcast Overcast  
Wind Chill: 28°   Ceiling: 4600
Heat Index: 35°   Visibility: 10mi
Dew Point: 27°   Wind: 9mph
Humidity: 72%   Direction: 120°ESE
Pressure: 30.06"   Gusts: NA
Location:  38.0638°N, 84.5027°W
Report Text: KLEX 220554Z 12008KT 10SM OVC046 02/M03 A3006 RMK AO2 SLP183 T00171028 10017 21011 57019
Loading
Personal Weather Stations






























Interactive Weather Map New forecast layout! Learn more

10-Day Weather Forecast

Advertisements
Track Severe Weather on mobile